Time;durP1;ratioP1;P1;durP2;ratioP2;P2;SDS_P1;SDS_P2;PMS_P1;PMS_P2;Temp;Humidity;BMP_temperature;BMP_pressure;BME280_temperature;BME280_humidity;BME280_pressure;Samples;Min_cycle;Max_cycle;Signal;HPM_P1;HPM_P2
2022/09/07 00:01:40;;;;;;;6.40;1.60;;;18.80;99.90;;;;;;4953948;28;20255;-73
2022/09/07 00:04:07;;;;;;;3.53;1.60;;;18.90;99.90;;;;;;4967113;28;20534;-74
2022/09/07 00:06:33;;;;;;;1.77;1.40;;;19.00;99.90;;;;;;4953796;28;20350;-73
2022/09/07 00:09:00;;;;;;;2.00;1.70;;;19.10;99.90;;;;;;4953703;28;20416;-73
2022/09/07 00:11:25;;;;;;;3.20;1.63;;;19.20;99.90;;;;;;4953794;28;20448;-73
2022/09/07 00:13:51;;;;;;;14.23;2.60;;;19.30;99.90;;;;;;4952828;28;20428;-72
2022/09/07 00:16:23;;;;;;;3.53;1.70;;;19.40;99.90;;;;;;4953501;28;20276;-73
2022/09/07 00:18:51;;;;;;;4.20;1.77;;;19.40;99.90;;;;;;4953866;28;20215;-74
2022/09/07 00:21:17;;;;;;;3.93;1.70;;;19.50;99.90;;;;;;4953382;28;20535;-74
2022/09/07 00:23:43;;;;;;;5.90;1.80;;;19.50;99.90;;;;;;4953826;28;20933;-73
2022/09/07 00:26:15;;;;;;;4.10;1.73;;;19.60;99.90;;;;;;4953179;28;20190;-74
2022/09/07 00:28:41;;;;;;;3.37;1.90;;;19.60;99.90;;;;;;4953730;28;20940;-74
2022/09/07 00:31:16;;;;;;;7.93;2.03;;;19.70;99.90;;;;;;4953022;28;20480;-74
2022/09/07 00:33:43;;;;;;;2.00;1.70;;;19.80;99.90;;;;;;4953740;28;20431;-75
2022/09/07 00:36:08;;;;;;;2.90;1.60;;;19.90;99.90;;;;;;4953046;28;20427;-74
2022/09/07 00:38:34;;;;;;;15.13;2.30;;;19.90;99.90;;;;;;4953655;28;20788;-74
2022/09/07 00:41:00;;;;;;;6.60;1.80;;;19.90;99.90;;;;;;4952958;28;20646;-74
2022/09/07 00:43:36;;;;;;;2.43;2.10;;;20.00;99.90;;;;;;4953578;28;20184;-74
2022/09/07 00:46:04;;;;;;;2.13;1.67;;;20.00;99.90;;;;;;4953022;28;20181;-74
2022/09/07 00:48:43;;;;;;;3.40;1.77;;;20.10;99.90;;;;;;4953422;28;20459;-74
2022/09/07 00:51:15;;;;;;;1.83;1.40;;;20.00;99.90;;;;;;4952977;28;20448;-75
2022/09/07 00:53:47;;;;;;;5.03;1.90;;;20.00;99.90;;;;;;4953500;28;20491;-74
2022/09/07 00:56:13;;;;;;;2.30;1.60;;;20.10;99.90;;;;;;4952822;28;20463;-73
2022/09/07 00:58:42;;;;;;;2.43;1.60;;;20.10;99.90;;;;;;4953398;28;20452;-74
2022/09/07 02:31:46;;;;;;;3.60;2.10;;;19.80;99.90;;;;;;5681206;22;20502;-73
2022/09/07 02:34:12;;;;;;;4.80;2.20;;;19.80;99.90;;;;;;5015782;28;20909;-73
2022/09/07 02:36:47;;;;;;;2.60;2.40;;;19.80;99.90;;;;;;5000400;28;20934;-74
2022/09/07 02:39:13;;;;;;;2.43;2.00;;;19.80;99.90;;;;;;4994356;28;20409;-74
2022/09/07 02:41:43;;;;;;;3.73;2.33;;;19.80;99.90;;;;;;4985074;28;20991;-74
2022/09/07 02:44:14;;;;;;;3.40;2.50;;;19.80;99.90;;;;;;4976093;28;20198;-74
2022/09/07 02:46:58;;;;;;;7.60;2.47;;;19.80;99.90;;;;;;4985332;28;20453;-74
2022/09/07 02:49:50;;;;;;;3.40;2.57;;;19.80;99.90;;;;;;4987584;28;21589;-74
2022/09/07 02:52:30;;;;;;;5.23;3.90;;;19.90;99.90;;;;;;4974673;28;20792;-74
2022/09/07 02:55:03;;;;;;;4.97;3.00;;;19.90;99.90;;;;;;4975575;28;20419;-75
2022/09/07 02:57:39;;;;;;;4.30;2.30;;;19.90;99.90;;;;;;4975229;28;20459;-74
2022/09/07 03:00:25;;;;;;;7.50;2.90;;;19.90;99.90;;;;;;4974996;28;20461;-74
2022/09/07 03:03:14;;;;;;;11.00;2.80;;;19.80;99.90;;;;;;4983255;28;20488;-74
2022/09/07 03:05:51;;;;;;;6.80;2.20;;;19.80;99.90;;;;;;4978595;28;20408;-74
2022/09/07 03:08:33;;;;;;;3.63;2.73;;;19.80;99.90;;;;;;4974097;28;20671;-74
2022/09/07 03:10:59;;;;;;;6.73;3.00;;;19.70;99.90;;;;;;4974252;28;20442;-73
2022/09/07 03:13:27;;;;;;;5.43;2.70;;;19.70;99.90;;;;;;4974152;28;20423;-74
2022/09/07 03:15:54;;;;;;;5.43;2.80;;;19.70;99.90;;;;;;4974184;28;20502;-74
2022/09/07 03:18:19;;;;;;;5.60;3.30;;;19.60;99.90;;;;;;4973941;28;20437;-74
2022/09/07 03:20:45;;;;;;;5.00;3.20;;;19.50;99.90;;;;;;4974084;28;20458;-74
2022/09/07 03:23:11;;;;;;;3.60;2.40;;;19.50;99.90;;;;;;4973891;28;20183;-74
2022/09/07 03:25:37;;;;;;;7.63;3.00;;;19.40;99.90;;;;;;4974536;28;20172;-74
2022/09/07 03:28:03;;;;;;;5.83;3.33;;;19.30;99.90;;;;;;4974014;28;20422;-74
2022/09/07 03:30:29;;;;;;;3.63;2.87;;;19.30;99.90;;;;;;4974016;28;20254;-74
2022/09/07 03:32:55;;;;;;;6.73;3.23;;;19.30;99.90;;;;;;4973697;28;20541;-74
2022/09/07 03:35:21;;;;;;;4.50;3.23;;;19.20;99.90;;;;;;4973892;28;20489;-74
2022/09/07 03:37:46;;;;;;;8.33;2.60;;;19.20;99.90;;;;;;4973718;28;20188;-74
2022/09/07 03:40:13;;;;;;;3.23;2.50;;;19.10;99.90;;;;;;4973629;28;20207;-74
2022/09/07 03:42:39;;;;;;;2.87;2.67;;;19.00;99.90;;;;;;4973640;28;20262;-74
2022/09/07 03:45:05;;;;;;;2.90;2.67;;;19.00;99.90;;;;;;4973455;28;20856;-74
2022/09/07 03:47:34;;;;;;;5.33;2.90;;;18.90;99.90;;;;;;4973110;28;20497;-74
2022/09/07 03:49:59;;;;;;;3.30;2.90;;;18.90;99.90;;;;;;4973440;28;20424;-74
2022/09/07 03:52:25;;;;;;;5.30;2.90;;;18.70;99.90;;;;;;4973330;28;20453;-74
2022/09/07 03:54:50;;;;;;;9.00;3.20;;;18.70;99.90;;;;;;4973513;28;20180;-74
2022/09/07 03:57:19;;;;;;;5.83;2.93;;;18.60;99.90;;;;;;4973091;28;20255;-74
2022/09/07 03:59:45;;;;;;;4.97;3.00;;;18.50;99.90;;;;;;4973422;28;20172;-74
2022/09/07 04:02:10;;;;;;;6.70;3.40;;;18.40;99.90;;;;;;4974410;28;20975;-74
2022/09/07 04:04:36;;;;;;;3.67;3.30;;;18.40;99.90;;;;;;4985332;28;20422;-74
2022/09/07 04:07:02;;;;;;;3.50;3.30;;;18.30;99.90;;;;;;4973467;28;20184;-74
2022/09/07 04:09:28;;;;;;;4.50;2.93;;;18.30;99.90;;;;;;4973397;28;20187;-73
2022/09/07 04:11:53;;;;;;;3.83;3.30;;;18.20;99.90;;;;;;4973130;28;20818;-69
2022/09/07 04:14:19;;;;;;;8.63;3.97;;;18.20;99.90;;;;;;4973139;28;20299;-73
2022/09/07 04:16:44;;;;;;;4.00;2.93;;;18.20;99.90;;;;;;4972974;28;20190;-71
2022/09/07 04:19:10;;;;;;;5.63;3.43;;;18.20;99.90;;;;;;4972937;28;20206;-70
2022/09/07 04:21:36;;;;;;;8.17;3.10;;;18.10;99.90;;;;;;4972898;28;20704;-71
2022/09/07 04:24:01;;;;;;;3.43;3.13;;;18.00;99.90;;;;;;4973285;28;20184;-71
2022/09/07 04:26:30;;;;;;;16.23;3.63;;;18.00;99.90;;;;;;4972765;28;20192;-71
2022/09/07 04:28:56;;;;;;;5.47;3.57;;;17.90;99.90;;;;;;4973037;28;20991;-71
2022/09/07 04:31:23;;;;;;;4.67;3.33;;;17.90;99.90;;;;;;4972499;28;20470;-71
2022/09/07 04:33:50;;;;;;;6.53;2.87;;;17.90;99.90;;;;;;4973071;28;20434;-71
2022/09/07 04:36:17;;;;;;;8.37;3.50;;;17.90;99.90;;;;;;4972550;28;20426;-71
2022/09/07 04:38:42;;;;;;;6.43;3.17;;;17.90;99.90;;;;;;4971977;28;20431;-71
2022/09/07 04:41:13;;;;;;;7.13;3.97;;;17.80;99.90;;;;;;4972470;28;20551;-71
2022/09/07 04:43:40;;;;;;;3.90;2.90;;;17.80;99.90;;;;;;4972982;28;20554;-71
2022/09/07 04:46:10;;;;;;;6.53;3.17;;;17.80;99.90;;;;;;4972548;28;20506;-68
2022/09/07 04:48:35;;;;;;;5.63;3.33;;;17.70;99.90;;;;;;4972720;28;20454;-72
2022/09/07 04:51:09;;;;;;;6.40;3.70;;;17.70;99.90;;;;;;4972521;28;20475;-71
2022/09/07 04:53:37;;;;;;;8.10;3.60;;;17.70;99.90;;;;;;4972749;28;20267;-72
2022/09/07 04:56:04;;;;;;;5.50;3.80;;;17.70;99.90;;;;;;4972644;28;20790;-71
2022/09/07 04:58:30;;;;;;;4.20;3.80;;;17.60;99.90;;;;;;4972544;28;20423;-74
2022/09/07 05:01:03;;;;;;;6.27;3.50;;;17.60;99.90;;;;;;4975315;28;20502;-72
2022/09/07 05:03:30;;;;;;;7.87;4.43;;;17.50;99.90;;;;;;4990038;28;20510;-73
2022/09/07 05:05:59;;;;;;;8.40;4.23;;;17.50;99.90;;;;;;4976873;28;20534;-72
2022/09/07 05:08:24;;;;;;;4.70;3.87;;;17.40;99.90;;;;;;4996031;28;20444;-72
2022/09/07 05:10:55;;;;;;;6.33;3.80;;;17.40;99.90;;;;;;5007167;28;20477;-72
2022/09/07 05:13:21;;;;;;;7.97;3.60;;;17.30;99.90;;;;;;4989417;28;20187;-72
2022/09/07 05:15:46;;;;;;;5.13;3.77;;;17.30;99.90;;;;;;4996001;28;20442;-73
2022/09/07 05:18:12;;;;;;;6.83;4.70;;;17.20;99.90;;;;;;4998619;28;20685;-74
2022/09/07 05:20:40;;;;;;;9.63;3.93;;;17.20;99.90;;;;;;4992284;28;20223;-71
2022/09/07 05:23:06;;;;;;;4.20;3.37;;;17.20;99.90;;;;;;4975634;28;20424;-72
2022/09/07 05:25:32;;;;;;;4.30;3.50;;;17.20;99.90;;;;;;4975615;28;20446;-74
2022/09/07 05:27:57;;;;;;;3.97;3.73;;;17.20;99.90;;;;;;4975148;28;20238;-73
2022/09/07 05:30:23;;;;;;;6.20;4.10;;;17.20;99.90;;;;;;4976311;28;20195;-73
2022/09/07 05:32:50;;;;;;;4.07;3.67;;;17.20;99.90;;;;;;4976690;28;20226;-72
2022/09/07 05:35:16;;;;;;;9.87;4.90;;;17.30;99.90;;;;;;4975983;28;20263;-72
2022/09/07 05:37:42;;;;;;;6.37;3.97;;;17.40;99.90;;;;;;4975826;28;20423;-72
2022/09/07 05:40:08;;;;;;;8.23;3.67;;;17.50;99.90;;;;;;4975481;28;20488;-72
2022/09/07 05:42:37;;;;;;;5.40;3.90;;;17.50;99.90;;;;;;4975868;28;20681;-72
2022/09/07 05:45:03;;;;;;;4.37;4.00;;;17.70;99.90;;;;;;4975577;28;20420;-72
2022/09/07 05:47:28;;;;;;;4.00;3.70;;;17.80;99.90;;;;;;4975888;28;20427;-72
2022/09/07 05:49:54;;;;;;;7.33;4.87;;;18.00;99.90;;;;;;4975780;28;21085;-72
2022/09/07 05:52:20;;;;;;;7.33;3.50;;;18.30;99.90;;;;;;4983877;28;20291;-72
2022/09/07 05:54:46;;;;;;;4.47;3.90;;;18.50;99.90;;;;;;4980491;28;20695;-73
2022/09/07 05:57:12;;;;;;;5.53;3.97;;;18.80;99.90;;;;;;4975295;28;20482;-73
2022/09/07 05:59:38;;;;;;;8.47;3.93;;;19.00;99.90;;;;;;4975926;28;20470;-72
2022/09/07 06:02:04;;;;;;;6.53;2.60;;;19.20;99.90;;;;;;4976675;28;20470;-72
2022/09/07 06:04:30;;;;;;;3.33;3.03;;;19.60;99.90;;;;;;4987334;28;20482;-74
2022/09/07 06:06:55;;;;;;;8.37;3.80;;;19.90;99.90;;;;;;4975453;28;20282;-72
2022/09/07 06:09:21;;;;;;;5.27;3.20;;;20.30;99.90;;;;;;4975629;28;20219;-72
2022/09/07 06:11:46;;;;;;;3.77;2.80;;;20.80;99.90;;;;;;4975209;28;20262;-72
2022/09/07 06:14:12;;;;;;;11.60;3.53;;;21.20;99.90;;;;;;4975274;28;20238;-73
2022/09/07 06:16:37;;;;;;;3.77;2.77;;;21.30;99.90;;;;;;4975215;28;20187;-73
2022/09/07 06:19:05;;;;;;;4.77;2.90;;;21.40;99.90;;;;;;4975729;28;20199;-72
2022/09/07 06:21:34;;;;;;;5.47;2.67;;;21.40;99.90;;;;;;4975262;28;20251;-72
2022/09/07 06:24:00;;;;;;;3.93;2.10;;;21.40;99.90;;;;;;4975156;28;20442;-73
2022/09/07 06:26:25;;;;;;;6.40;2.57;;;21.50;99.90;;;;;;4975001;28;20928;-73
2022/09/07 06:28:51;;;;;;;5.50;2.43;;;21.70;99.90;;;;;;4975056;28;20184;-73
2022/09/07 06:31:18;;;;;;;6.40;3.20;;;22.10;99.90;;;;;;4984254;28;20628;-73
2022/09/07 06:33:44;;;;;;;10.83;2.63;;;22.70;99.90;;;;;;4994335;28;20186;-74
2022/09/07 06:36:15;;;;;;;4.10;2.50;;;23.30;99.90;;;;;;4994368;28;20422;-73
2022/09/07 06:38:42;;;;;;;9.40;2.87;;;24.00;99.90;;;;;;4992659;28;20454;-72
2022/09/07 06:41:12;;;;;;;3.90;2.67;;;24.60;99.90;;;;;;4983048;28;20465;-72
2022/09/07 06:43:38;;;;;;;4.30;2.53;;;25.10;99.90;;;;;;4994202;28;20429;-72
2022/09/07 06:46:05;;;;;;;5.70;2.63;;;25.70;99.90;;;;;;4989949;28;20414;-72
2022/09/07 06:48:31;;;;;;;4.33;2.07;;;26.00;99.90;;;;;;4972454;28;20545;-72
2022/09/07 06:51:02;;;;;;;4.27;1.90;;;26.20;99.90;;;;;;4974812;28;20451;-73
2022/09/07 06:53:33;;;;;;;4.10;2.10;;;26.30;99.90;;;;;;4974591;28;20183;-72
2022/09/07 06:56:00;;;;;;;2.50;2.30;;;26.10;99.90;;;;;;4973491;28;20420;-72
2022/09/07 06:58:26;;;;;;;6.40;2.30;;;25.80;99.90;;;;;;4974292;28;20435;-71
2022/09/07 07:00:52;;;;;;;6.37;2.47;;;25.50;99.90;;;;;;4974440;28;20497;-74
2022/09/07 07:03:18;;;;;;;3.27;2.27;;;25.10;99.90;;;;;;4987424;28;20431;-73
2022/09/07 07:05:54;;;;;;;6.00;2.60;;;24.70;99.90;;;;;;4975249;28;20972;-74
2022/09/07 07:08:22;;;;;;;2.70;1.90;;;24.40;99.90;;;;;;4974453;28;20222;-73
2022/09/07 07:10:47;;;;;;;5.87;2.40;;;24.40;99.90;;;;;;4980545;28;20422;-73
2022/09/07 07:13:14;;;;;;;7.40;2.50;;;24.90;99.90;;;;;;4993744;28;20521;-73
2022/09/07 07:15:40;;;;;;;6.13;2.20;;;25.60;99.90;;;;;;4993834;28;20270;-73
2022/09/07 07:18:05;;;;;;;5.07;2.30;;;26.30;99.90;;;;;;4993381;28;20779;-72
2022/09/07 07:20:33;;;;;;;13.03;2.90;;;26.70;99.90;;;;;;4993494;28;20458;-73
2022/09/07 07:22:58;;;;;;;3.50;2.30;;;27.00;99.90;;;;;;4993185;28;20206;-72
2022/09/07 07:25:24;;;;;;;4.43;1.87;;;27.40;99.90;;;;;;4993254;28;20415;-72
2022/09/07 07:27:49;;;;;;;7.67;2.27;;;27.50;99.90;;;;;;4993429;28;20191;-70
2022/09/07 07:30:16;;;;;;;8.40;2.00;;;27.60;99.90;;;;;;4993073;28;20742;-70
2022/09/07 07:32:43;;;;;;;3.80;1.73;;;27.80;99.90;;;;;;4993046;28;20218;-70
2022/09/07 07:35:09;;;;;;;5.93;2.17;;;28.20;99.90;;;;;;4993057;28;20442;-71
2022/09/07 07:37:36;;;;;;;5.43;2.07;;;28.60;99.90;;;;;;4992891;28;20927;-70
2022/09/07 07:40:07;;;;;;;7.27;2.50;;;28.90;99.90;;;;;;4993182;28;20427;-70
2022/09/07 07:42:34;;;;;;;7.60;2.33;;;29.30;99.90;;;;;;4992980;28;20443;-70
2022/09/07 07:45:03;;;;;;;2.43;1.77;;;29.40;99.90;;;;;;4993047;28;20450;-70
2022/09/07 07:47:28;;;;;;;8.43;2.20;;;29.20;99.90;;;;;;4992649;28;20962;-70
2022/09/07 07:49:54;;;;;;;7.97;2.37;;;29.00;99.90;;;;;;4993100;28;20461;-70
2022/09/07 07:52:19;;;;;;;6.97;2.10;;;29.00;99.90;;;;;;4992562;28;20553;-70
2022/09/07 07:54:45;;;;;;;9.00;2.00;;;29.20;99.90;;;;;;4992935;28;20179;-70
2022/09/07 07:57:11;;;;;;;3.50;1.83;;;29.30;99.90;;;;;;4992341;28;20238;-70
2022/09/07 07:59:36;;;;;;;4.70;2.17;;;29.40;99.90;;;;;;4992987;28;20226;-70
2022/09/07 08:02:03;;;;;;;5.40;2.20;;;29.70;99.90;;;;;;4992334;28;20222;-73
2022/09/07 08:04:31;;;;;;;9.43;1.90;;;29.80;99.90;;;;;;4984028;28;20653;-70
2022/09/07 08:06:56;;;;;;;6.97;2.20;;;29.20;99.90;;;;;;4973238;28;20461;-70
2022/09/07 08:09:22;;;;;;;5.93;2.03;;;29.20;99.90;;;;;;4973333;28;20787;-71
2022/09/07 08:11:48;;;;;;;8.80;2.27;;;29.10;99.90;;;;;;4973295;28;20216;-71
2022/09/07 08:14:13;;;;;;;5.10;2.00;;;29.50;99.90;;;;;;4973107;28;20279;-71
2022/09/07 08:16:41;;;;;;;5.47;1.90;;;29.90;99.90;;;;;;4973298;28;20716;-71
2022/09/07 08:19:07;;;;;;;4.70;2.40;;;30.00;99.90;;;;;;4979537;28;20265;-71
2022/09/07 08:21:33;;;;;;;5.70;2.00;;;30.30;99.90;;;;;;4992310;28;20963;-72
2022/09/07 08:23:58;;;;;;;9.47;2.50;;;30.40;99.90;;;;;;4992284;28;20202;-71
2022/09/07 08:26:24;;;;;;;3.00;2.00;;;30.00;99.90;;;;;;4992376;28;20652;-70
2022/09/07 08:28:50;;;;;;;3.67;1.83;;;30.10;99.90;;;;;;4992103;28;20233;-72
2022/09/07 08:31:16;;;;;;;3.13;1.90;;;29.90;99.90;;;;;;4992018;28;20225;-70
2022/09/07 08:33:42;;;;;;;4.83;1.70;;;30.40;99.90;;;;;;4992152;28;20188;-71
2022/09/07 08:36:16;;;;;;;5.90;2.23;;;30.60;99.90;;;;;;4991777;28;20418;-70
2022/09/07 08:38:42;;;;;;;11.33;2.23;;;31.10;99.90;;;;;;4992059;28;20268;-71
2022/09/07 08:41:38;;;;;;;4.33;2.60;;;31.30;99.90;;;;;;4991948;28;21038;-71
2022/09/07 08:44:19;;;;;;;3.73;2.40;;;31.70;99.90;;;;;;4973062;28;20183;-70
2022/09/07 08:46:57;;;;;;;5.10;2.50;;;32.00;99.90;;;;;;4992019;28;20410;-71
2022/09/07 08:49:32;;;;;;;4.70;1.80;;;32.20;99.90;;;;;;4991976;28;20418;-70
2022/09/07 08:52:07;;;;;;;8.23;2.10;;;32.50;99.90;;;;;;4992106;28;20436;-71
2022/09/07 08:54:33;;;;;;;8.47;2.17;;;32.60;99.90;;;;;;4992122;28;20433;-72
2022/09/07 08:57:01;;;;;;;6.93;2.07;;;32.60;99.90;;;;;;4991765;28;20774;-71
2022/09/07 08:59:41;;;;;;;5.73;2.17;;;32.80;99.90;;;;;;4992049;28;20266;-71
2022/09/07 09:02:13;;;;;;;6.80;2.07;;;32.80;99.90;;;;;;4991591;28;20462;-72
2022/09/07 09:04:39;;;;;;;12.10;2.60;;;32.90;99.90;;;;;;4980727;28;20483;-72
2022/09/07 09:07:29;;;;;;;8.43;2.43;;;33.30;99.90;;;;;;4972351;28;20431;-72
2022/09/07 09:10:32;;;;;;;8.80;1.63;;;33.60;99.90;;;;;;4972642;28;20653;-72
2022/09/07 09:13:17;;;;;;;8.57;2.67;;;33.40;99.90;;;;;;4972773;28;20981;-72
2022/09/07 09:15:43;;;;;;;6.90;1.23;;;33.20;99.90;;;;;;4972478;28;20882;-72
2022/09/07 09:18:26;;;;;;;7.00;2.00;;;33.80;99.90;;;;;;4972191;28;20447;-71
2022/09/07 09:20:56;;;;;;;3.63;2.00;;;34.10;99.90;;;;;;4972341;28;20699;-72
2022/09/07 09:23:46;;;;;;;6.90;2.40;;;34.30;99.90;;;;;;4972274;28;20423;-72
2022/09/07 09:26:44;;;;;;;3.90;1.93;;;34.30;99.90;;;;;;4971990;28;20971;-72
2022/09/07 09:29:19;;;;;;;3.57;2.07;;;34.40;99.90;;;;;;4979956;28;20846;-72
2022/09/07 09:31:45;;;;;;;7.33;1.60;;;34.60;99.90;;;;;;4991415;28;20451;-72
2022/09/07 09:34:16;;;;;;;5.30;2.30;;;34.70;99.90;;;;;;4992009;28;20429;-72
2022/09/07 09:36:52;;;;;;;3.33;1.80;;;35.00;99.90;;;;;;4991395;28;20187;-71
2022/09/07 09:39:25;;;;;;;7.07;2.00;;;35.40;99.90;;;;;;4991648;28;20846;-72
2022/09/07 09:41:53;;;;;;;3.90;1.57;;;35.50;99.90;;;;;;4991529;28;20462;-72
2022/09/07 09:44:21;;;;;;;12.13;2.43;;;35.60;99.90;;;;;;4991464;28;20426;-72
2022/09/07 09:46:49;;;;;;;4.73;1.93;;;35.60;99.90;;;;;;4993678;28;20426;-72
2022/09/07 09:49:20;;;;;;;4.30;1.93;;;35.40;99.90;;;;;;4995109;28;20444;-72
2022/09/07 09:51:51;;;;;;;5.90;2.17;;;35.50;99.90;;;;;;4995176;28;20438;-72
2022/09/07 09:54:35;;;;;;;3.00;2.03;;;35.40;99.90;;;;;;4995176;28;20441;-72
2022/09/07 09:57:00;;;;;;;8.93;2.40;;;35.50;99.90;;;;;;4995130;28;20440;-72
2022/09/07 09:59:31;;;;;;;5.50;2.67;;;35.00;99.90;;;;;;4995065;28;20512;-72
2022/09/07 10:01:58;;;;;;;4.73;2.10;;;35.20;99.90;;;;;;4994812;28;20574;-72
2022/09/07 10:04:24;;;;;;;3.47;1.90;;;35.20;99.90;;;;;;4985822;28;20423;-74
2022/09/07 10:06:51;;;;;;;5.27;2.20;;;35.10;99.90;;;;;;4978063;28;20990;-72
2022/09/07 10:09:24;;;;;;;3.37;1.47;;;34.80;99.90;;;;;;4994823;28;20957;-72
2022/09/07 10:11:57;;;;;;;4.67;2.00;;;34.90;99.90;;;;;;4994852;28;20449;-71
2022/09/07 10:14:29;;;;;;;4.90;2.40;;;35.10;99.90;;;;;;4994645;28;20521;-72
2022/09/07 10:16:55;;;;;;;4.83;1.77;;;35.10;99.90;;;;;;4994599;28;20566;-73
2022/09/07 10:19:26;;;;;;;3.33;1.63;;;35.50;99.90;;;;;;4994567;28;20470;-72
2022/09/07 10:21:59;;;;;;;7.33;2.10;;;35.20;99.90;;;;;;4994555;28;20465;-73
2022/09/07 10:24:29;;;;;;;4.40;2.43;;;34.30;99.90;;;;;;4994749;28;20931;-73
2022/09/07 10:26:55;;;;;;;4.30;2.27;;;34.60;99.90;;;;;;4994471;28;20476;-71
2022/09/07 10:29:30;;;;;;;4.07;2.00;;;34.50;99.90;;;;;;4994236;28;20521;-72
2022/09/07 10:32:17;;;;;;;3.63;2.50;;;34.30;99.90;;;;;;4994451;28;20218;-72
2022/09/07 10:34:46;;;;;;;6.13;1.80;;;33.80;99.90;;;;;;4994524;28;20473;-72
2022/09/07 10:37:20;;;;;;;3.03;2.40;;;33.30;99.90;;;;;;4975370;28;20481;-72
2022/09/07 10:39:57;;;;;;;4.13;2.47;;;32.20;99.90;;;;;;4975996;28;20407;-73
2022/09/07 10:42:39;;;;;;;9.80;2.60;;;31.10;99.90;;;;;;4994638;28;20970;-72
2022/09/07 10:45:14;;;;;;;8.67;2.17;;;30.80;99.90;;;;;;4993146;28;20419;-71
2022/09/07 10:48:09;;;;;;;5.10;3.00;;;30.50;99.90;;;;;;4994212;28;20465;-71
2022/09/07 10:50:45;;;;;;;3.97;1.90;;;30.60;99.90;;;;;;4994124;28;20425;-73
2022/09/07 10:53:29;;;;;;;9.13;2.77;;;30.30;99.90;;;;;;4994124;28;20432;-72
2022/09/07 10:56:24;;;;;;;7.20;3.07;;;30.10;99.90;;;;;;4994271;28;20436;-71
2022/09/07 10:59:05;;;;;;;12.30;2.40;;;29.50;99.90;;;;;;4993306;28;20422;-71
2022/09/07 11:01:58;;;;;;;6.53;2.40;;;29.00;99.90;;;;;;4993706;28;20875;-71
2022/09/07 11:04:37;;;;;;;8.30;2.87;;;28.50;99.90;;;;;;4974397;28;20427;-71
2022/09/07 11:07:48;;;;;;;10.33;2.37;;;28.20;99.90;;;;;;4974018;28;20471;-71
2022/09/07 11:10:32;;;;;;;2.83;2.00;;;28.50;99.90;;;;;;4974315;28;20929;-72
2022/09/07 11:13:03;;;;;;;7.30;2.40;;;28.80;99.90;;;;;;4974142;28;20454;-72
2022/09/07 11:15:47;;;;;;;4.23;1.97;;;29.10;99.90;;;;;;4974362;28;20459;-71
2022/09/07 11:18:19;;;;;;;3.17;2.43;;;29.80;99.90;;;;;;4974021;28;20470;-72
2022/09/07 11:20:53;;;;;;;8.83;2.00;;;30.20;99.90;;;;;;4980951;28;20905;-74
2022/09/07 11:23:33;;;;;;;4.67;2.63;;;30.50;99.90;;;;;;4994414;28;20430;-71
2022/09/07 11:26:20;;;;;;;7.80;2.37;;;31.00;99.90;;;;;;4994489;28;20422;-72
2022/09/07 11:29:07;;;;;;;12.43;2.67;;;31.50;99.90;;;;;;4994142;28;20449;-72
2022/09/07 11:32:15;;;;;;;5.80;2.13;;;31.90;99.90;;;;;;4994115;28;20462;-73
2022/09/07 11:35:00;;;;;;;3.70;2.03;;;32.20;99.90;;;;;;4971720;28;20481;-72
2022/09/07 11:37:30;;;;;;;5.00;2.30;;;32.40;99.90;;;;;;4971681;28;20430;-72
2022/09/07 11:40:05;;;;;;;7.97;2.40;;;32.40;99.90;;;;;;4985143;28;20447;-72
2022/09/07 11:42:44;;;;;;;6.47;2.00;;;32.60;99.90;;;;;;4993279;28;20466;-72
2022/09/07 11:45:27;;;;;;;2.83;1.70;;;32.50;99.90;;;;;;4993116;28;20437;-70
2022/09/07 11:48:03;;;;;;;2.80;2.20;;;32.60;99.90;;;;;;4993101;28;20525;-72
2022/09/07 11:50:34;;;;;;;6.80;1.70;;;32.30;99.90;;;;;;4992925;28;20418;-72
2022/09/07 11:53:13;;;;;;;5.37;2.00;;;32.20;99.90;;;;;;4993203;28;20812;-70
2022/09/07 11:55:43;;;;;;;7.00;2.43;;;32.00;99.90;;;;;;4973782;28;20442;-72
2022/09/07 11:58:41;;;;;;;4.47;1.77;;;32.00;99.90;;;;;;4973536;28;20430;-72
2022/09/07 12:01:28;;;;;;;4.40;1.70;;;32.20;99.90;;;;;;4983800;28;20470;-72
2022/09/07 12:04:10;;;;;;;5.37;2.30;;;32.60;99.90;;;;;;4973472;28;20415;-71
2022/09/07 12:07:04;;;;;;;7.87;1.57;;;32.70;99.90;;;;;;4973478;28;20420;-74
2022/09/07 12:09:58;;;;;;;3.07;1.80;;;32.90;99.90;;;;;;4971908;28;20928;-72
2022/09/07 12:12:32;;;;;;;4.27;1.93;;;32.90;99.90;;;;;;4980988;28;20445;-72
2022/09/07 12:15:16;;;;;;;2.30;1.57;;;32.90;99.90;;;;;;4992579;28;20429;-72
2022/09/07 12:17:57;;;;;;;3.90;1.57;;;32.70;99.90;;;;;;4992394;28;20458;-73
2022/09/07 12:20:38;;;;;;;2.40;1.63;;;32.60;99.90;;;;;;4992301;28;21011;-72
2022/09/07 12:23:16;;;;;;;8.30;2.00;;;32.50;99.90;;;;;;4992600;28;20422;-72
2022/09/07 12:25:47;;;;;;;2.90;1.90;;;32.50;99.90;;;;;;4992509;28;20430;-72
2022/09/07 12:28:23;;;;;;;2.80;1.50;;;32.30;99.90;;;;;;4992163;28;20422;-72
2022/09/07 12:31:03;;;;;;;4.00;1.50;;;32.40;99.90;;;;;;4992246;28;20433;-72
2022/09/07 12:33:37;;;;;;;1.63;1.50;;;32.30;99.90;;;;;;4992356;28;20848;-72
2022/09/07 12:36:27;;;;;;;3.83;1.80;;;31.80;99.90;;;;;;4992244;28;20816;-72
2022/09/07 12:39:05;;;;;;;4.20;1.90;;;31.70;99.90;;;;;;4992188;28;20770;-72
2022/09/07 12:41:41;;;;;;;2.10;1.90;;;31.70;99.90;;;;;;4983466;28;20469;-72
2022/09/07 12:44:15;;;;;;;4.13;1.50;;;31.40;99.90;;;;;;4992326;28;20426;-72
2022/09/07 12:46:44;;;;;;;4.17;1.63;;;31.30;99.90;;;;;;4989185;28;20426;-72
2022/09/07 12:49:35;;;;;;;4.10;1.57;;;31.40;99.90;;;;;;4972695;28;20432;-70
2022/09/07 12:52:15;;;;;;;4.40;1.60;;;31.40;99.90;;;;;;4971108;28;20570;-71
2022/09/07 12:54:53;;;;;;;4.00;1.77;;;31.10;99.90;;;;;;4976527;28;20963;-72
2022/09/07 12:57:36;;;;;;;2.33;1.60;;;31.00;99.90;;;;;;4980852;28;20518;-71
2022/09/07 13:00:16;;;;;;;2.60;2.00;;;30.50;99.90;;;;;;4983126;28;20537;-72
2022/09/07 13:03:06;;;;;;;5.23;1.63;;;30.30;99.90;;;;;;4980460;28;20979;-72
2022/09/07 13:05:51;;;;;;;10.90;1.93;;;30.10;99.90;;;;;;4988288;28;20991;-70
2022/09/07 13:08:42;;;;;;;3.77;1.73;;;30.10;99.90;;;;;;4984367;28;21015;-73
2022/09/07 13:11:38;;;;;;;3.50;1.70;;;30.20;99.90;;;;;;4971416;28;20435;-71
2022/09/07 13:14:19;;;;;;;2.60;1.27;;;30.30;99.90;;;;;;4971114;28;20455;-71
2022/09/07 13:16:46;;;;;;;1.47;1.37;;;30.50;99.90;;;;;;4991311;28;20981;-72
2022/09/07 13:19:33;;;;;;;4.30;1.97;;;30.40;99.90;;;;;;4990300;28;20502;-72
2022/09/07 13:21:58;;;;;;;1.83;1.13;;;30.60;99.90;;;;;;4993574;28;20478;-72
2022/09/07 13:24:44;;;;;;;6.30;1.90;;;30.50;99.90;;;;;;4993144;28;20565;-69
2022/09/07 13:27:10;;;;;;;4.90;1.70;;;30.40;99.90;;;;;;4982503;28;20679;-73
2022/09/07 13:29:42;;;;;;;2.40;1.27;;;30.00;99.90;;;;;;4979046;28;20607;-69
2022/09/07 13:32:28;;;;;;;5.40;2.43;;;29.70;99.90;;;;;;4976386;28;20272;-71
2022/09/07 13:35:05;;;;;;;4.63;1.80;;;29.60;99.90;;;;;;4976444;28;20430;-72
2022/09/07 13:37:41;;;;;;;3.17;1.70;;;29.60;99.90;;;;;;4976071;28;20426;-70
2022/09/07 13:40:16;;;;;;;4.97;1.63;;;29.70;99.90;;;;;;4976149;28;20427;-72
2022/09/07 13:42:43;;;;;;;1.77;1.10;;;29.60;99.90;;;;;;4976278;28;20521;-71
2022/09/07 13:45:28;;;;;;;5.63;1.90;;;29.70;99.90;;;;;;4976103;28;20921;-70
2022/09/07 13:48:01;;;;;;;4.00;1.23;;;29.70;99.90;;;;;;4976114;28;20811;-70
2022/09/07 13:50:43;;;;;;;5.47;1.67;;;29.50;99.90;;;;;;4975983;28;20442;-71
2022/09/07 13:53:18;;;;;;;4.00;1.90;;;29.40;99.90;;;;;;4980882;28;20426;-71
2022/09/07 13:56:15;;;;;;;7.83;1.53;;;29.20;99.90;;;;;;4983242;28;20474;-71
2022/09/07 13:58:44;;;;;;;4.03;1.33;;;29.10;99.90;;;;;;4985247;28;20464;-72
2022/09/07 14:01:22;;;;;;;6.90;1.70;;;29.00;99.90;;;;;;4994709;28;20474;-71
2022/09/07 14:03:58;;;;;;;4.23;1.20;;;28.90;99.90;;;;;;4995378;28;20505;-72
2022/09/07 14:06:34;;;;;;;3.03;1.50;;;28.80;99.90;;;;;;4995040;28;21010;-72
2022/09/07 14:09:20;;;;;;;2.33;1.47;;;28.80;99.90;;;;;;4994793;28;20433;-71
2022/09/07 14:11:49;;;;;;;4.33;1.40;;;28.70;99.90;;;;;;4995105;28;20450;-71
2022/09/07 14:14:25;;;;;;;4.07;1.20;;;28.70;99.90;;;;;;4994962;28;20504;-72
2022/09/07 14:16:51;;;;;;;1.37;1.20;;;28.60;99.90;;;;;;4994986;28;20926;-72
2022/09/07 14:19:24;;;;;;;2.77;1.20;;;28.60;99.90;;;;;;4994639;28;20443;-72
2022/09/07 14:22:26;;;;;;;8.93;1.90;;;28.40;99.90;;;;;;4994600;28;20222;-72
2022/09/07 14:24:54;;;;;;;3.20;1.70;;;28.20;99.90;;;;;;4983447;28;20430;-70
2022/09/07 14:27:23;;;;;;;6.63;2.03;;;28.10;99.90;;;;;;4994271;28;20430;-71
2022/09/07 14:29:49;;;;;;;9.03;2.60;;;28.10;99.90;;;;;;4994634;28;20426;-71
2022/09/07 14:32:19;;;;;;;3.73;1.53;;;27.90;99.90;;;;;;4993212;28;20477;-71
2022/09/07 14:34:45;;;;;;;3.10;1.30;;;27.90;99.90;;;;;;4994593;28;20418;-72
2022/09/07 14:37:16;;;;;;;4.20;1.90;;;28.00;99.90;;;;;;4994002;28;20418;-72
2022/09/07 14:39:48;;;;;;;7.43;1.70;;;28.00;99.90;;;;;;4994400;28;20466;-72
2022/09/07 14:42:17;;;;;;;4.27;1.67;;;28.00;99.90;;;;;;4994023;28;20476;-72